Riverton, Nebraska
Current Conditions -  °F | °C
As of 6:55 PM on Tuesday 21 Oct 2014 (Local Time) from KHDE Reporting Station
Clear Clear  
Wind Chill: 69°   Ceiling: Unl
Heat Index: 69°   Visibility: 10mi
Dew Point: 55°   Wind: 14mph
Humidity: 60%   Direction: 160°SSE
Pressure: 29.94"   Gusts: 18mph
Location:  40.09°N, 98.76°W
Report Text: KHDE 212355Z AUTO 16012G16KT 10SM CLR 21/13 A2994 RMK AO2 T02070126 10240 20207
Loading
Personal Weather Stations






























Interactive Weather Map
Tropical Storm Tracking
New forecast layout! Learn more

10-Day Weather Forecast

Advertisements
Track Severe Weather on mobile